createdAt,value
2018-06-19T00:02:23.158Z,6.90
2018-06-19T00:04:51.581Z,7.00
2018-06-19T00:07:19.945Z,7.10
2018-06-19T00:09:51.401Z,7.83
2018-06-19T00:12:19.742Z,7.60
2018-06-19T00:14:48.188Z,7.10
2018-06-19T00:17:16.664Z,7.40
2018-06-19T00:22:45.018Z,7.60
2018-06-19T00:25:13.517Z,7.27
2018-06-19T00:27:41.994Z,7.83
2018-06-19T00:30:10.351Z,7.50
2018-06-19T00:32:38.734Z,6.93
2018-06-19T00:35:07.206Z,7.00
2018-06-19T00:37:35.739Z,8.00
2018-06-19T00:40:04.167Z,7.00
2018-06-19T00:42:32.645Z,7.63
2018-06-19T00:45:01.021Z,7.07
2018-06-19T00:47:29.407Z,8.73
2018-06-19T00:49:57.847Z,6.60
2018-06-19T01:01:18.325Z,7.20
2018-06-19T01:03:46.743Z,7.43
2018-06-19T01:06:15.142Z,7.77
2018-06-19T01:08:43.569Z,7.23
2018-06-19T01:11:12.120Z,7.00
2018-06-19T01:13:40.479Z,7.10
2018-06-19T01:16:08.838Z,7.37
2018-06-19T01:18:37.226Z,6.90
2018-06-19T01:21:05.792Z,6.70
2018-06-19T01:23:34.417Z,7.27
2018-06-19T01:26:02.838Z,7.40
2018-06-19T01:28:31.230Z,7.40
2018-06-19T01:30:59.653Z,7.30
2018-06-19T01:33:28.341Z,7.13
2018-06-19T01:35:56.976Z,7.10
2018-06-19T01:38:25.336Z,7.03
2018-06-19T01:40:54.691Z,7.40
2018-06-19T01:43:23.155Z,7.30
2018-06-19T01:45:51.518Z,7.17
2018-06-19T01:48:19.899Z,7.63
2018-06-19T02:08:06.289Z,7.53
2018-06-19T02:10:34.616Z,7.50
2018-06-19T02:13:02.969Z,7.10
2018-06-19T02:15:31.171Z,6.90
2018-06-19T02:17:59.648Z,6.87
2018-06-19T02:20:28.050Z,7.03
2018-06-19T02:22:56.444Z,7.70
2018-06-19T02:25:26.930Z,7.33
2018-06-19T02:27:55.325Z,7.90
2018-06-19T02:30:23.768Z,7.87
2018-06-19T02:32:52.305Z,7.40
2018-06-19T02:35:20.729Z,7.40
2018-06-19T02:37:58.757Z,8.00
2018-06-19T02:40:27.145Z,7.10
2018-06-19T02:42:55.683Z,7.40
2018-06-19T03:15:52.211Z,6.83
2018-06-19T03:18:20.809Z,6.57
2018-06-19T03:20:49.331Z,6.60
2018-06-19T03:23:17.819Z,7.33
2018-06-19T03:28:57.732Z,7.37
2018-06-19T03:31:26.268Z,7.70
2018-06-19T03:33:54.884Z,7.20
2018-06-19T03:36:33.565Z,6.60
2018-06-19T03:39:02.140Z,7.10
2018-06-19T03:41:31.121Z,6.73
2018-06-19T03:43:59.717Z,7.17
2018-06-19T03:46:28.221Z,7.47
2018-06-19T03:48:56.727Z,7.53
2018-06-19T03:51:25.337Z,7.47
2018-06-19T03:59:52.038Z,6.20
2018-06-19T04:02:20.808Z,6.40
2018-06-19T04:12:04.915Z,6.47
2018-06-19T04:14:46.874Z,6.37
2018-06-19T04:25:56.242Z,6.77
2018-06-19T04:31:36.507Z,6.60
2018-06-19T04:34:05.040Z,5.60
2018-06-19T04:36:34.654Z,5.27
2018-06-19T04:39:03.294Z,5.67
2018-06-19T04:41:31.904Z,5.77
2018-06-19T04:50:10.677Z,5.97
2018-06-19T04:52:39.221Z,6.67
2018-06-19T04:55:07.699Z,5.87
2018-06-19T05:00:42.671Z,5.87
2018-06-19T05:03:11.853Z,6.10
2018-06-19T05:05:40.444Z,5.83
2018-06-19T05:08:08.996Z,6.10
2018-06-19T05:19:16.491Z,6.50
2018-06-19T05:21:45.107Z,5.70
2018-06-19T05:24:13.819Z,5.47
2018-06-19T05:26:42.420Z,6.37
2018-06-19T05:29:10.971Z,5.60
2018-06-19T05:31:39.421Z,5.40
2018-06-19T05:34:08.032Z,5.80
2018-06-19T05:36:36.593Z,6.17
2018-06-19T05:39:08.277Z,5.27
2018-06-19T05:41:36.827Z,6.80
2018-06-19T05:44:05.767Z,7.43
2018-06-19T05:46:34.542Z,6.47
2018-06-19T05:49:03.225Z,5.40
2018-06-19T05:51:31.753Z,5.10
2018-06-19T05:54:18.975Z,5.50
2018-06-19T05:56:47.504Z,6.40
2018-06-19T05:59:15.806Z,5.63
2018-06-19T06:01:44.392Z,5.60
2018-06-19T06:04:12.748Z,5.40
2018-06-19T06:06:41.212Z,5.97
2018-06-19T06:09:10.233Z,6.97
2018-06-19T06:11:38.774Z,6.33
2018-06-19T06:14:07.310Z,5.50
2018-06-19T06:16:46.051Z,6.17
2018-06-19T06:19:14.490Z,6.70
2018-06-19T06:21:43.016Z,6.60
2018-06-19T06:24:11.470Z,6.37
2018-06-19T06:26:39.882Z,6.60
2018-06-19T06:30:12.087Z,6.70
2018-06-19T06:32:40.601Z,6.30
2018-06-19T06:35:09.244Z,6.83
2018-06-19T06:37:37.746Z,7.10
2018-06-19T06:40:06.152Z,7.47
2018-06-19T06:42:34.516Z,7.30
2018-06-19T06:45:02.938Z,7.37
2018-06-19T06:47:31.340Z,6.07
2018-06-19T06:50:00.044Z,7.10
2018-06-19T06:52:28.586Z,6.67
2018-06-19T06:54:57.332Z,7.00
2018-06-19T06:57:25.752Z,6.03
2018-06-19T06:59:54.172Z,6.30
2018-06-19T07:02:22.569Z,6.03
2018-06-19T07:04:51.032Z,6.70
2018-06-19T07:07:19.423Z,7.63
2018-06-19T07:09:47.991Z,7.80
2018-06-19T07:12:16.470Z,7.83
2018-06-19T07:14:44.863Z,7.27
2018-06-19T07:17:13.360Z,7.17
2018-06-19T07:19:42.296Z,6.90
2018-06-19T07:22:11.536Z,7.90
2018-06-19T07:24:40.822Z,7.30
2018-06-19T07:27:09.631Z,6.67
2018-06-19T07:29:38.708Z,6.47
2018-06-19T07:32:07.678Z,5.83
2018-06-19T07:34:36.152Z,5.73
2018-06-19T07:37:04.863Z,6.17
2018-06-19T07:39:33.505Z,5.80
2018-06-19T07:42:02.068Z,6.43
2018-06-19T07:44:30.761Z,5.80
2018-06-19T07:46:59.331Z,6.60
2018-06-19T07:49:27.943Z,5.80
2018-06-19T07:51:56.791Z,6.23
2018-06-19T07:54:25.246Z,6.47
2018-06-19T07:56:53.978Z,5.90
2018-06-19T07:59:23.474Z,5.43
2018-06-19T08:01:52.104Z,5.83
2018-06-19T08:04:21.087Z,5.67
2018-06-19T08:06:49.976Z,5.20
2018-06-19T08:09:18.623Z,6.23
2018-06-19T08:11:47.223Z,7.20
2018-06-19T08:14:16.076Z,5.70
2018-06-19T08:16:44.406Z,5.80
2018-06-19T08:19:14.087Z,5.57
2018-06-19T08:21:42.734Z,4.90
2018-06-19T08:24:11.363Z,5.50
2018-06-19T08:26:39.760Z,5.10
2018-06-19T08:29:08.147Z,5.60
2018-06-19T08:31:36.576Z,4.77
2018-06-19T08:34:04.846Z,6.07
2018-06-19T08:36:33.916Z,6.20
2018-06-19T08:39:03.443Z,5.97
2018-06-19T08:41:31.885Z,5.33
2018-06-19T08:44:00.357Z,5.90
2018-06-19T08:46:28.819Z,5.30
2018-06-19T08:48:57.318Z,5.77
2018-06-19T08:51:25.721Z,5.40
2018-06-19T08:53:54.260Z,5.53
2018-06-19T08:56:22.674Z,5.07
2018-06-19T08:58:51.095Z,4.90
2018-06-19T09:01:19.684Z,4.93
2018-06-19T09:03:48.354Z,5.33
2018-06-19T09:06:16.880Z,4.87
2018-06-19T09:08:52.308Z,4.10
2018-06-19T09:11:20.821Z,4.97
2018-06-19T09:13:49.259Z,4.50
2018-06-19T09:16:17.746Z,6.20
2018-06-19T09:18:46.296Z,5.80
2018-06-19T09:21:14.493Z,6.80
2018-06-19T09:23:42.939Z,5.83
2018-06-19T09:26:11.344Z,5.43
2018-06-19T09:28:39.849Z,5.27
2018-06-19T09:31:08.366Z,5.10
2018-06-19T09:33:36.838Z,5.67
2018-06-19T09:36:05.275Z,5.07
2018-06-19T09:38:33.763Z,5.13
2018-06-19T09:41:02.276Z,5.30
2018-06-19T09:43:30.780Z,5.90
2018-06-19T09:45:59.560Z,5.53
2018-06-19T09:48:27.997Z,4.80
2018-06-19T09:50:56.585Z,5.33
2018-06-19T09:53:24.986Z,5.40
2018-06-19T09:55:53.449Z,6.37
2018-06-19T09:58:22.621Z,5.70
2018-06-19T10:00:51.244Z,6.40
2018-06-19T10:03:19.937Z,5.23
2018-06-19T10:05:48.670Z,6.03
2018-06-19T10:08:17.030Z,5.77
2018-06-19T10:10:45.564Z,5.90
2018-06-19T10:13:14.059Z,6.23
2018-06-19T10:15:42.732Z,5.53
2018-06-19T10:18:11.179Z,6.20
2018-06-19T10:20:39.697Z,5.70
2018-06-19T10:23:08.076Z,5.90
2018-06-19T10:25:36.474Z,5.10
2018-06-19T10:28:05.291Z,4.77
2018-06-19T10:30:33.725Z,5.43
2018-06-19T10:33:02.181Z,5.53
2018-06-19T10:35:30.616Z,5.17
2018-06-19T10:37:59.075Z,5.90
2018-06-19T10:40:27.827Z,5.33
2018-06-19T10:42:56.259Z,4.90
2018-06-19T10:45:24.767Z,5.30
2018-06-19T10:47:53.143Z,5.90
2018-06-19T10:50:21.949Z,5.20
2018-06-19T10:52:50.583Z,5.40
2018-06-19T10:55:18.993Z,6.17
2018-06-19T10:57:47.548Z,5.47
2018-06-19T11:00:15.985Z,5.70
2018-06-19T11:02:44.350Z,6.03
2018-06-19T11:05:13.607Z,4.97
2018-06-19T11:07:42.374Z,4.90
2018-06-19T11:10:11.148Z,5.00
2018-06-19T11:12:39.771Z,5.50
2018-06-19T11:15:08.474Z,5.73
2018-06-19T11:17:37.483Z,4.80
2018-06-19T11:20:06.160Z,5.37
2018-06-19T11:22:35.163Z,5.27
2018-06-19T11:25:03.508Z,6.07
2018-06-19T11:27:31.978Z,5.90
2018-06-19T11:30:00.819Z,4.80
2018-06-19T11:32:29.284Z,4.93
2018-06-19T11:34:58.318Z,5.83
2018-06-19T11:37:27.231Z,5.60
2018-06-19T11:39:55.755Z,5.80
2018-06-19T11:42:24.894Z,5.10
2018-06-19T11:44:53.694Z,5.33
2018-06-19T11:47:22.115Z,5.77
2018-06-19T11:49:50.488Z,5.10
2018-06-19T11:52:19.034Z,5.00
2018-06-19T11:54:47.466Z,5.90
2018-06-19T11:57:15.805Z,4.50
2018-06-19T11:59:45.193Z,5.20
2018-06-19T12:02:13.876Z,4.60
2018-06-19T12:04:42.308Z,4.40
2018-06-19T12:07:10.841Z,4.60
2018-06-19T12:09:39.415Z,4.70
2018-06-19T12:12:07.954Z,5.13
2018-06-19T12:14:36.364Z,5.20
2018-06-19T12:17:04.921Z,5.10
2018-06-19T12:19:33.331Z,5.67
2018-06-19T12:22:01.753Z,5.33
2018-06-19T12:24:30.198Z,4.43
2018-06-19T12:26:58.618Z,4.50
2018-06-19T12:29:27.122Z,4.13
2018-06-19T12:31:55.623Z,4.50
2018-06-19T12:34:24.069Z,4.53
2018-06-19T12:36:52.581Z,4.93
2018-06-19T12:39:21.034Z,4.57
2018-06-19T12:41:49.430Z,4.70
2018-06-19T12:44:18.123Z,4.23
2018-06-19T12:46:46.731Z,4.30
2018-06-19T12:49:19.573Z,4.00
2018-06-19T12:52:00.972Z,4.50
